Time;durP1;ratioP1;P1;durP2;ratioP2;P2;SDS_P1;SDS_P2;PMS_P1;PMS_P2;Temp;Humidity;BMP_temperature;BMP_pressure;BME280_temperature;BME280_humidity;BME280_pressure;Samples;Min_cycle;Max_cycle;Signal;HPM_P1;HPM_P2
2023/09/02 00:01:12;;;;;;;20.53;18.43;;;15.80;99.90;;;;;;5053604;28;20802;-41
2023/09/02 00:03:38;;;;;;;20.37;18.23;;;15.90;99.90;;;;;;5054611;28;20464;-42
2023/09/02 00:06:05;;;;;;;20.43;17.37;;;15.60;99.90;;;;;;5054142;28;20451;-45
2023/09/02 00:08:31;;;;;;;20.27;16.90;;;15.90;99.90;;;;;;5054242;28;20405;-42
2023/09/02 00:10:58;;;;;;;18.90;16.87;;;15.90;99.90;;;;;;5054613;28;20820;-40
2023/09/02 00:13:25;;;;;;;19.80;18.00;;;15.60;99.90;;;;;;5053755;28;20442;-41
2023/09/02 00:15:51;;;;;;;17.53;15.93;;;15.90;99.90;;;;;;5053798;28;20437;-42
2023/09/02 00:18:19;;;;;;;19.57;17.47;;;16.00;99.90;;;;;;5055691;28;20457;-42
2023/09/02 00:20:46;;;;;;;21.10;16.80;;;15.70;99.90;;;;;;5056500;28;20438;-42
2023/09/02 00:23:12;;;;;;;21.37;18.57;;;16.10;99.90;;;;;;5055106;28;20431;-42
2023/09/02 00:25:39;;;;;;;19.57;17.40;;;15.60;99.90;;;;;;5052208;28;20472;-42
2023/09/02 00:28:06;;;;;;;20.80;18.63;;;15.80;99.90;;;;;;5052891;28;20416;-45
2023/09/02 00:30:32;;;;;;;20.63;18.53;;;15.80;99.90;;;;;;5053242;28;20437;-41
2023/09/02 00:32:59;;;;;;;22.13;19.83;;;15.80;99.90;;;;;;5052826;28;20549;-41
2023/09/02 00:35:27;;;;;;;18.57;16.63;;;15.70;99.90;;;;;;5058251;28;20461;-42
2023/09/02 00:37:54;;;;;;;20.33;18.33;;;15.50;99.90;;;;;;5060189;28;20514;-42
2023/09/02 00:40:23;;;;;;;20.87;18.67;;;15.70;99.90;;;;;;5054726;28;20521;-42
2023/09/02 00:42:51;;;;;;;20.50;17.90;;;15.70;99.90;;;;;;5054271;28;21041;-41
2023/09/02 00:45:21;;;;;;;20.47;18.40;;;15.70;99.90;;;;;;5051839;28;20445;-42
2023/09/02 00:47:49;;;;;;;21.70;19.70;;;15.60;99.90;;;;;;5052573;28;20444;-43
2023/09/02 00:50:16;;;;;;;22.00;19.70;;;15.50;99.90;;;;;;5052738;28;20855;-41
2023/09/02 00:52:44;;;;;;;20.93;18.93;;;15.50;99.90;;;;;;5051114;28;20446;-43
2023/09/02 00:55:11;;;;;;;21.43;19.13;;;15.50;99.90;;;;;;5051368;28;20474;-42
2023/09/02 00:57:39;;;;;;;20.33;18.30;;;15.20;99.90;;;;;;5051555;28;20463;-43
2023/09/02 01:00:08;;;;;;;20.50;18.43;;;15.40;99.90;;;;;;5052501;28;20533;-41
2023/09/02 01:02:37;;;;;;;25.83;20.27;;;15.40;99.90;;;;;;5052532;28;20405;-40
2023/09/02 01:05:05;;;;;;;20.63;18.53;;;15.40;99.90;;;;;;5051169;28;20819;-42
2023/09/02 01:07:34;;;;;;;20.03;18.13;;;15.30;99.90;;;;;;5052232;28;20433;-44
2023/09/02 01:10:04;;;;;;;21.67;19.33;;;15.90;99.90;;;;;;5052438;28;20423;-42
2023/09/02 01:12:31;;;;;;;21.67;19.47;;;15.30;99.90;;;;;;5055236;28;20439;-41
2023/09/02 01:14:58;;;;;;;21.93;19.63;;;15.30;99.90;;;;;;5056649;28;20456;-42
2023/09/02 01:17:25;;;;;;;22.00;19.70;;;15.20;99.90;;;;;;5055226;28;20987;-42
2023/09/02 01:19:56;;;;;;;21.37;19.17;;;15.30;99.90;;;;;;5056998;28;20794;-42
2023/09/02 01:22:43;;;;;;;21.90;19.60;;;15.20;99.90;;;;;;5057160;28;20816;-42
2023/09/02 01:25:39;;;;;;;18.80;17.10;;;15.20;99.90;;;;;;5057183;28;20461;-42
2023/09/02 01:28:14;;;;;;;19.60;17.70;;;15.20;99.90;;;;;;5057053;28;20438;-40
2023/09/02 01:30:43;;;;;;;23.63;17.40;;;15.20;99.90;;;;;;5057112;28;20424;-43
2023/09/02 01:33:11;;;;;;;20.33;18.13;;;15.20;99.90;;;;;;5056134;28;20431;-42
2023/09/02 01:35:38;;;;;;;20.00;17.90;;;15.20;99.90;;;;;;5059036;28;20993;-42
2023/09/02 01:38:07;;;;;;;21.93;19.60;;;15.20;99.90;;;;;;5059025;28;20928;-42
2023/09/02 01:40:36;;;;;;;21.33;18.90;;;15.20;99.90;;;;;;5056422;28;20517;-42
2023/09/02 01:43:04;;;;;;;21.30;19.20;;;15.10;99.90;;;;;;5056565;28;20441;-43
2023/09/02 01:45:35;;;;;;;22.67;19.43;;;15.10;99.90;;;;;;5054993;28;20463;-42
2023/09/02 01:48:03;;;;;;;22.23;18.23;;;15.10;99.90;;;;;;5056881;28;20427;-43
2023/09/02 01:50:31;;;;;;;23.00;20.77;;;15.10;99.90;;;;;;5057568;28;20441;-44
2023/09/02 01:52:59;;;;;;;24.87;22.37;;;15.10;99.90;;;;;;5057172;28;20451;-42
2023/09/02 01:55:26;;;;;;;23.73;21.23;;;15.00;99.90;;;;;;5055084;28;20821;-42
2023/09/02 01:57:56;;;;;;;22.80;20.40;;;15.20;99.90;;;;;;5055783;28;20518;-43
2023/09/02 02:00:22;;;;;;;22.27;19.97;;;15.00;99.90;;;;;;5056376;28;20449;-41
2023/09/02 02:02:53;;;;;;;22.43;20.33;;;14.90;99.90;;;;;;5058110;28;20438;-41
2023/09/02 02:05:24;;;;;;;23.77;21.40;;;15.00;99.90;;;;;;5062515;28;20473;-43
2023/09/02 02:07:56;;;;;;;22.30;20.27;;;14.90;99.90;;;;;;5066193;28;20430;-41
2023/09/02 02:10:24;;;;;;;22.50;20.27;;;14.80;99.90;;;;;;5059216;28;20424;-42
2023/09/02 02:12:51;;;;;;;22.20;19.90;;;14.80;99.90;;;;;;5054005;28;20453;-41
2023/09/02 02:15:18;;;;;;;22.50;20.30;;;14.90;99.90;;;;;;5054986;28;20532;-44
2023/09/02 02:17:44;;;;;;;20.90;18.90;;;14.80;99.90;;;;;;5053474;28;20449;-43
2023/09/02 02:20:13;;;;;;;26.93;21.23;;;14.80;99.90;;;;;;5053706;28;20475;-42
2023/09/02 02:22:39;;;;;;;26.33;21.10;;;14.80;99.90;;;;;;5055241;28;20434;-41
2023/09/02 02:25:06;;;;;;;24.47;21.97;;;14.80;99.90;;;;;;5055343;28;20462;-41
2023/09/02 02:27:33;;;;;;;23.80;20.90;;;14.80;99.90;;;;;;5056459;28;20423;-42
2023/09/02 02:30:00;;;;;;;24.13;21.20;;;14.80;99.90;;;;;;5055711;28;20426;-41
2023/09/02 02:32:26;;;;;;;25.93;23.53;;;14.80;99.90;;;;;;5055165;28;20439;-44
2023/09/02 02:34:54;;;;;;;23.90;21.50;;;15.00;99.90;;;;;;5055398;28;20454;-41
2023/09/02 02:37:22;;;;;;;27.87;23.77;;;14.80;99.90;;;;;;5054986;28;20824;-41
2023/09/02 02:39:48;;;;;;;26.07;23.50;;;14.80;99.90;;;;;;5054958;28;20478;-40
2023/09/02 02:42:15;;;;;;;26.60;24.10;;;14.80;99.90;;;;;;5055271;28;20446;-43
2023/09/02 02:44:42;;;;;;;25.53;23.03;;;14.80;99.90;;;;;;5053329;28;20569;-41
2023/09/02 02:47:08;;;;;;;27.07;23.30;;;14.80;99.90;;;;;;5054831;28;20430;-41
2023/09/02 02:49:35;;;;;;;27.00;22.90;;;14.70;99.90;;;;;;5053808;28;20521;-43
2023/09/02 02:52:01;;;;;;;25.83;23.20;;;14.70;99.90;;;;;;5053006;28;20447;-41
2023/09/02 02:54:32;;;;;;;25.43;23.03;;;14.70;99.90;;;;;;5052852;28;20470;-42
2023/09/02 02:57:00;;;;;;;23.67;21.13;;;14.70;99.90;;;;;;5052712;28;20421;-42
2023/09/02 02:59:27;;;;;;;26.23;23.57;;;14.60;99.90;;;;;;5054480;28;20467;-44
2023/09/02 03:01:54;;;;;;;26.77;23.60;;;14.70;99.90;;;;;;5056260;28;20549;-42
2023/09/02 03:04:21;;;;;;;25.23;22.63;;;14.60;99.90;;;;;;5055742;28;20541;-42
2023/09/02 03:06:47;;;;;;;25.00;22.80;;;14.60;99.90;;;;;;5054645;28;20463;-45
2023/09/02 03:09:14;;;;;;;25.93;23.23;;;14.60;99.90;;;;;;5059711;28;20875;-40
2023/09/02 03:11:42;;;;;;;25.43;22.73;;;14.60;99.90;;;;;;5058819;28;20520;-41
2023/09/02 03:14:08;;;;;;;26.70;24.03;;;14.60;99.90;;;;;;5058444;28;20451;-43
2023/09/02 03:16:35;;;;;;;25.67;23.17;;;14.60;99.90;;;;;;5058170;28;20430;-42
2023/09/02 03:19:02;;;;;;;25.97;23.20;;;14.60;99.90;;;;;;5059019;28;21020;-44
2023/09/02 03:21:30;;;;;;;26.50;24.00;;;14.50;99.90;;;;;;5056746;28;20454;-42
2023/09/02 03:23:57;;;;;;;26.27;23.33;;;14.50;99.90;;;;;;5054924;28;20504;-40
2023/09/02 03:26:26;;;;;;;26.37;23.83;;;14.50;99.90;;;;;;5053254;28;20450;-43
2023/09/02 03:28:54;;;;;;;25.00;22.37;;;14.60;99.90;;;;;;5053187;28;20430;-42
2023/09/02 03:31:23;;;;;;;24.30;21.77;;;14.70;99.90;;;;;;5053307;28;20447;-39
2023/09/02 03:33:50;;;;;;;25.27;22.67;;;14.50;99.90;;;;;;5053024;28;20458;-42
2023/09/02 03:36:19;;;;;;;24.53;21.40;;;14.40;99.90;;;;;;5053958;28;20454;-43
2023/09/02 03:38:47;;;;;;;25.87;23.27;;;14.40;99.90;;;;;;5053530;28;20478;-41
2023/09/02 03:41:17;;;;;;;23.13;20.90;;;14.40;99.90;;;;;;5053173;28;20493;-42
2023/09/02 03:43:43;;;;;;;23.90;21.60;;;14.40;99.90;;;;;;5052598;28;20489;-41
2023/09/02 03:46:12;;;;;;;23.37;21.10;;;14.60;99.90;;;;;;5052065;28;20869;-45
2023/09/02 03:48:38;;;;;;;23.53;21.27;;;14.40;99.90;;;;;;5051682;28;20418;-42
2023/09/02 03:51:11;;;;;;;26.53;23.73;;;13.60;99.90;;;;;;5052076;28;20537;-41
2023/09/02 03:53:39;;;;;;;23.40;21.27;;;14.30;99.90;;;;;;5052212;28;20472;-42
2023/09/02 03:56:06;;;;;;;24.07;21.67;;;14.30;99.90;;;;;;5054029;28;20453;-43
2023/09/02 03:58:35;;;;;;;23.83;21.30;;;14.30;99.90;;;;;;5054485;28;20932;-44
2023/09/02 04:01:03;;;;;;;26.27;23.57;;;14.30;99.90;;;;;;5056198;28;21052;-42
2023/09/02 04:03:35;;;;;;;23.60;21.20;;;14.20;99.90;;;;;;5055472;28;20445;-42
2023/09/02 04:06:02;;;;;;;22.50;20.20;;;14.20;99.90;;;;;;5055526;28;20447;-41
2023/09/02 04:08:33;;;;;;;22.50;20.37;;;14.20;99.90;;;;;;5059595;28;20442;-43
2023/09/02 04:11:00;;;;;;;24.13;21.63;;;14.20;99.90;;;;;;5059730;28;20533;-42
2023/09/02 04:13:28;;;;;;;24.23;21.83;;;14.20;99.90;;;;;;5056535;28;20397;-43
2023/09/02 04:15:57;;;;;;;22.33;20.33;;;14.20;99.90;;;;;;5054216;28;20989;-42
2023/09/02 04:18:26;;;;;;;23.37;21.17;;;14.10;99.90;;;;;;5054138;28;20983;-43
2023/09/02 04:20:54;;;;;;;24.37;22.03;;;14.10;99.90;;;;;;5053639;28;20459;-43
2023/09/02 04:23:22;;;;;;;24.40;22.00;;;14.10;99.90;;;;;;5054267;28;20423;-43
2023/09/02 04:25:52;;;;;;;24.13;21.63;;;14.10;99.90;;;;;;5054529;28;20438;-42
2023/09/02 04:28:20;;;;;;;24.20;21.90;;;14.10;99.90;;;;;;5053892;28;20447;-42
2023/09/02 04:30:48;;;;;;;21.40;19.10;;;14.10;99.90;;;;;;5054935;28;20423;-44
2023/09/02 04:33:16;;;;;;;23.00;20.87;;;14.10;99.90;;;;;;5052459;28;20442;-44
2023/09/02 04:35:46;;;;;;;21.77;19.50;;;14.10;99.90;;;;;;5051536;28;20447;-42
2023/09/02 04:38:15;;;;;;;21.03;18.87;;;14.20;99.90;;;;;;5052562;28;20440;-42
2023/09/02 04:40:45;;;;;;;24.57;22.20;;;14.20;99.90;;;;;;5051407;28;20981;-42
2023/09/02 04:43:13;;;;;;;23.07;20.67;;;14.30;99.90;;;;;;5052739;28;20438;-40
2023/09/02 04:45:42;;;;;;;21.53;19.23;;;14.20;99.90;;;;;;5056158;28;20428;-41
2023/09/02 04:48:11;;;;;;;21.87;19.60;;;14.50;99.90;;;;;;5054370;28;20532;-42
2023/09/02 04:50:40;;;;;;;22.00;19.90;;;14.20;99.90;;;;;;5055280;28;20792;-42
2023/09/02 04:53:09;;;;;;;21.40;19.23;;;14.20;99.90;;;;;;5055146;28;20412;-42
2023/09/02 04:55:40;;;;;;;23.10;20.63;;;14.20;99.90;;;;;;5055759;28;20479;-43
2023/09/02 04:58:08;;;;;;;23.77;20.80;;;14.30;99.90;;;;;;5055415;28;20504;-42
2023/09/02 05:00:37;;;;;;;21.83;19.87;;;14.20;99.90;;;;;;5056458;28;20476;-42
2023/09/02 05:03:05;;;;;;;21.13;19.00;;;14.30;99.90;;;;;;5062058;28;20442;-43
2023/09/02 05:05:33;;;;;;;27.80;21.90;;;14.50;99.90;;;;;;5061462;28;20502;-43
2023/09/02 05:08:02;;;;;;;22.13;20.20;;;14.30;99.90;;;;;;5058727;28;20425;-43
2023/09/02 05:10:29;;;;;;;19.40;17.60;;;14.30;99.90;;;;;;5055016;28;20439;-41
2023/09/02 05:12:57;;;;;;;21.57;19.43;;;14.30;99.90;;;;;;5055090;28;20421;-41
2023/09/02 05:15:24;;;;;;;21.90;19.60;;;14.30;99.90;;;;;;5054837;28;20792;-41
2023/09/02 05:17:51;;;;;;;22.33;20.13;;;14.30;99.90;;;;;;5053942;28;20417;-44
2023/09/02 05:20:18;;;;;;;20.43;18.33;;;14.60;99.90;;;;;;5054785;28;20494;-41
2023/09/02 05:22:44;;;;;;;21.30;19.20;;;14.40;99.90;;;;;;5054133;28;20914;-44
2023/09/02 05:25:11;;;;;;;21.33;19.27;;;14.50;99.90;;;;;;5056100;28;20457;-42
2023/09/02 05:27:38;;;;;;;18.80;16.97;;;14.50;99.90;;;;;;5055736;28;20529;-41
2023/09/02 05:30:08;;;;;;;20.87;18.73;;;14.60;99.90;;;;;;5055335;28;20413;-42
2023/09/02 05:32:35;;;;;;;17.60;15.90;;;14.70;99.90;;;;;;5055457;28;20492;-43
2023/09/02 05:35:02;;;;;;;21.07;18.10;;;14.80;99.90;;;;;;5055659;28;20459;-42
2023/09/02 05:37:28;;;;;;;19.87;17.77;;;14.90;99.90;;;;;;5055395;28;20439;-41
2023/09/02 05:39:55;;;;;;;21.10;19.07;;;15.00;99.90;;;;;;5055134;28;20480;-44
2023/09/02 05:42:21;;;;;;;19.70;17.70;;;15.30;99.90;;;;;;5054069;28;20417;-44
2023/09/02 05:44:48;;;;;;;18.90;17.10;;;15.30;99.90;;;;;;5055565;28;20953;-41
2023/09/02 05:47:16;;;;;;;18.83;16.80;;;15.30;99.90;;;;;;5056201;28;20417;-43
2023/09/02 05:49:43;;;;;;;21.93;19.60;;;15.50;99.90;;;;;;5058847;28;20420;-41
2023/09/02 05:52:09;;;;;;;18.03;16.10;;;15.60;99.90;;;;;;5057739;28;20398;-44
2023/09/02 05:54:36;;;;;;;18.70;16.77;;;15.70;99.90;;;;;;5059868;28;20450;-41
2023/09/02 05:57:03;;;;;;;18.87;15.30;;;15.80;99.90;;;;;;5056557;28;20409;-41
2023/09/02 05:59:30;;;;;;;18.37;14.20;;;15.80;99.90;;;;;;5060705;28;20874;-43
2023/09/02 06:01:57;;;;;;;15.00;12.70;;;16.00;99.90;;;;;;5059443;28;20441;-42
2023/09/02 06:04:25;;;;;;;17.20;13.90;;;16.00;99.90;;;;;;5055824;28;20439;-43
2023/09/02 06:06:51;;;;;;;13.83;11.27;;;16.10;99.90;;;;;;5055511;28;20782;-42
2023/09/02 06:09:18;;;;;;;13.13;11.17;;;16.20;99.90;;;;;;5055524;28;20921;-41
2023/09/02 06:11:45;;;;;;;14.23;10.60;;;16.20;99.90;;;;;;5055988;28;20927;-41
2023/09/02 06:14:11;;;;;;;11.87;10.30;;;16.40;99.90;;;;;;5055456;28;20429;-41
2023/09/02 06:16:38;;;;;;;13.10;10.30;;;16.50;99.90;;;;;;5054702;28;20434;-42
2023/09/02 06:19:05;;;;;;;12.70;11.37;;;16.60;99.90;;;;;;5055507;28;20432;-40
2023/09/02 06:21:33;;;;;;;12.13;8.93;;;16.70;99.90;;;;;;5055341;28;20453;-41
2023/09/02 06:23:59;;;;;;;13.23;11.93;;;16.80;99.90;;;;;;5055390;28;20434;-41
2023/09/02 06:26:26;;;;;;;10.00;9.10;;;16.80;99.90;;;;;;5055514;28;20450;-43
2023/09/02 06:28:53;;;;;;;12.30;8.70;;;16.90;99.90;;;;;;5053412;28;20517;-42
2023/09/02 06:31:19;;;;;;;9.17;8.20;;;17.00;99.90;;;;;;5054849;28;20772;-42
2023/09/02 06:33:46;;;;;;;9.20;7.90;;;16.80;99.90;;;;;;5054757;28;20460;-44
2023/09/02 06:36:14;;;;;;;9.47;8.47;;;17.20;99.90;;;;;;5054358;28;20445;-43
2023/09/02 06:38:42;;;;;;;12.00;8.10;;;17.20;99.90;;;;;;5054660;28;20513;-42
2023/09/02 06:41:10;;;;;;;11.80;8.33;;;17.20;99.90;;;;;;5054051;28;20462;-42
2023/09/02 06:43:37;;;;;;;9.23;8.33;;;17.30;99.90;;;;;;5054437;28;20464;-42
2023/09/02 06:46:09;;;;;;;8.60;7.70;;;17.30;99.90;;;;;;5054516;28;20415;-43
2023/09/02 06:48:36;;;;;;;11.60;7.57;;;17.40;99.90;;;;;;5053825;28;20438;-42
2023/09/02 06:51:02;;;;;;;9.90;8.97;;;17.40;99.90;;;;;;5054213;28;20432;-44
2023/09/02 06:53:29;;;;;;;14.50;9.43;;;17.40;99.90;;;;;;5054110;28;20410;-42
2023/09/02 06:55:57;;;;;;;9.63;7.87;;;17.50;99.90;;;;;;5054408;28;20453;-40
2023/09/02 06:58:23;;;;;;;9.30;7.77;;;17.60;99.90;;;;;;5052797;28;20445;-40
2023/09/02 07:00:50;;;;;;;9.17;7.90;;;17.60;99.90;;;;;;5054257;28;20447;-41
2023/09/02 07:03:17;;;;;;;14.27;7.80;;;17.70;99.90;;;;;;5053903;28;20806;-44
2023/09/02 07:05:43;;;;;;;12.03;8.40;;;17.90;99.90;;;;;;5054776;28;20429;-42
2023/09/02 07:08:10;;;;;;;8.60;7.80;;;17.70;99.90;;;;;;5054090;28;20430;-40
2023/09/02 07:10:36;;;;;;;7.80;7.10;;;17.80;99.90;;;;;;5053162;28;20507;-40
2023/09/02 07:13:05;;;;;;;12.87;7.60;;;17.90;99.90;;;;;;5054225;28;20415;-49
2023/09/02 07:15:31;;;;;;;8.47;7.57;;;17.80;99.90;;;;;;5054996;28;20442;-41
2023/09/02 07:17:58;;;;;;;13.17;8.80;;;17.90;99.90;;;;;;5052581;28;20445;-40
2023/09/02 07:20:24;;;;;;;10.67;7.57;;;18.00;99.90;;;;;;5054409;28;20575;-41
2023/09/02 07:22:51;;;;;;;8.43;7.40;;;18.00;99.90;;;;;;5053408;28;20495;-41
2023/09/02 07:25:18;;;;;;;7.30;6.60;;;18.00;99.90;;;;;;5054519;28;20441;-43
2023/09/02 07:27:44;;;;;;;7.37;6.63;;;18.10;99.90;;;;;;5053943;28;20434;-44
2023/09/02 07:30:13;;;;;;;8.63;7.43;;;18.20;99.90;;;;;;5053505;28;20832;-45
2023/09/02 07:32:40;;;;;;;10.50;7.00;;;18.20;99.90;;;;;;5056210;28;20480;-44
2023/09/02 07:35:07;;;;;;;10.40;7.13;;;18.30;99.90;;;;;;5055784;28;20485;-44
2023/09/02 07:37:34;;;;;;;9.27;6.87;;;18.30;99.90;;;;;;5053437;28;20425;-44
2023/09/02 07:40:00;;;;;;;7.97;6.33;;;18.30;99.90;;;;;;5051718;28;20497;-44
2023/09/02 07:42:27;;;;;;;9.13;7.20;;;18.40;99.90;;;;;;5052642;28;20939;-44
2023/09/02 07:44:54;;;;;;;7.63;6.60;;;18.40;99.90;;;;;;5052832;28;20866;-44
2023/09/02 07:47:21;;;;;;;9.20;4.70;;;18.40;99.90;;;;;;5053112;28;20437;-44
2023/09/02 07:49:48;;;;;;;9.10;5.80;;;18.70;99.90;;;;;;5053215;28;20445;-44
2023/09/02 07:52:16;;;;;;;7.97;5.43;;;18.50;99.90;;;;;;5053599;28;20438;-44
2023/09/02 07:54:43;;;;;;;6.60;5.50;;;18.40;99.90;;;;;;5051735;28;20477;-45
2023/09/02 07:57:09;;;;;;;8.70;6.60;;;18.50;99.90;;;;;;5051196;28;20449;-45
2023/09/02 07:59:36;;;;;;;10.50;4.93;;;18.60;99.90;;;;;;5052872;28;20532;-45
2023/09/02 08:02:03;;;;;;;8.60;5.20;;;18.60;99.90;;;;;;5052972;28;20537;-44
2023/09/02 08:04:31;;;;;;;5.53;4.13;;;18.70;99.90;;;;;;5053116;28;20979;-44
2023/09/02 08:06:58;;;;;;;8.37;5.10;;;18.70;99.90;;;;;;5052447;28;20437;-44
2023/09/02 08:09:25;;;;;;;8.00;4.43;;;18.80;99.90;;;;;;5053309;28;20878;-44
2023/09/02 08:11:51;;;;;;;4.60;4.00;;;18.80;99.90;;;;;;5052911;28;20772;-45
2023/09/02 08:14:18;;;;;;;5.33;3.80;;;18.90;99.90;;;;;;5052400;28;20461;-45
2023/09/02 08:16:44;;;;;;;7.37;4.50;;;18.70;99.90;;;;;;5052531;28;20410;-44
2023/09/02 08:19:11;;;;;;;8.23;4.53;;;19.00;99.90;;;;;;5053015;28;20500;-44
2023/09/02 08:21:39;;;;;;;4.73;3.87;;;19.00;99.90;;;;;;5052568;28;21002;-44
2023/09/02 08:24:06;;;;;;;5.20;4.70;;;19.00;99.90;;;;;;5053382;28;20801;-44
2023/09/02 08:26:32;;;;;;;3.40;3.00;;;19.10;99.90;;;;;;5052570;28;20448;-46
2023/09/02 08:28:59;;;;;;;5.40;3.80;;;19.10;99.80;;;;;;5053944;28;20402;-44
2023/09/02 08:31:25;;;;;;;7.20;3.90;;;19.20;99.30;;;;;;5054583;28;20427;-44
2023/09/02 08:33:52;;;;;;;6.47;3.50;;;19.20;99.10;;;;;;5055243;28;20462;-45
2023/09/02 08:36:19;;;;;;;6.00;3.60;;;19.30;98.80;;;;;;5053537;28;20450;-46
2023/09/02 08:38:47;;;;;;;3.13;2.83;;;19.30;98.60;;;;;;5053243;28;20935;-45
2023/09/02 08:41:22;;;;;;;3.70;2.90;;;19.50;98.10;;;;;;5053731;28;20493;-45
2023/09/02 08:43:53;;;;;;;5.40;3.27;;;19.40;96.80;;;;;;5053216;28;20549;-44
2023/09/02 08:46:20;;;;;;;8.70;5.00;;;19.40;96.60;;;;;;5052607;28;20447;-45
2023/09/02 08:48:48;;;;;;;5.07;4.03;;;19.50;96.80;;;;;;5051776;28;20437;-45
2023/09/02 08:51:15;;;;;;;5.87;3.90;;;19.50;96.80;;;;;;5050672;28;20451;-45
2023/09/02 08:53:44;;;;;;;6.03;3.80;;;19.60;96.60;;;;;;5051896;28;20981;-43
2023/09/02 08:56:12;;;;;;;8.60;4.30;;;19.70;96.60;;;;;;5052361;28;20540;-44
2023/09/02 08:58:40;;;;;;;6.50;4.50;;;19.70;96.70;;;;;;5051707;28;20439;-44
2023/09/02 09:01:07;;;;;;;4.20;3.80;;;19.70;96.70;;;;;;5051774;28;20484;-45
2023/09/02 09:03:34;;;;;;;6.90;4.20;;;19.80;96.60;;;;;;5051509;28;20697;-44
2023/09/02 09:06:03;;;;;;;4.30;3.10;;;19.90;96.70;;;;;;5051654;28;20433;-45
2023/09/02 09:08:32;;;;;;;7.37;3.90;;;19.90;96.80;;;;;;5051769;28;20431;-46
2023/09/02 09:10:59;;;;;;;8.93;4.70;;;20.00;96.70;;;;;;5052265;28;20441;-44
2023/09/02 09:13:28;;;;;;;6.13;3.60;;;20.10;96.70;;;;;;5051934;28;20467;-44
2023/09/02 09:15:57;;;;;;;9.40;4.03;;;20.20;96.80;;;;;;5052930;28;20447;-44
2023/09/02 09:18:24;;;;;;;7.17;4.17;;;20.20;96.80;;;;;;5053466;28;20455;-44
2023/09/02 09:20:51;;;;;;;8.63;4.90;;;20.40;96.90;;;;;;5054004;28;20480;-43
2023/09/02 09:23:17;;;;;;;6.97;4.40;;;20.40;96.70;;;;;;5054256;28;20499;-43
2023/09/02 09:25:49;;;;;;;4.30;3.80;;;20.40;96.80;;;;;;5054056;28;20968;-45
2023/09/02 09:28:16;;;;;;;7.90;4.20;;;20.50;96.90;;;;;;5054308;28;20418;-44
2023/09/02 09:30:44;;;;;;;4.27;3.57;;;20.50;96.80;;;;;;5054158;28;20490;-44
2023/09/02 09:33:10;;;;;;;3.97;3.50;;;20.60;96.80;;;;;;5055881;28;20799;-44
2023/09/02 09:35:37;;;;;;;5.20;3.97;;;20.70;96.40;;;;;;5057513;28;20460;-45
2023/09/02 09:38:05;;;;;;;6.07;4.50;;;20.80;96.50;;;;;;5056634;28;20821;-44
2023/09/02 09:40:32;;;;;;;5.57;3.70;;;20.80;96.40;;;;;;5056382;28;20512;-43
2023/09/02 09:43:00;;;;;;;7.30;3.50;;;20.90;96.30;;;;;;5056126;28;20441;-44
2023/09/02 09:45:27;;;;;;;4.00;3.43;;;21.00;96.30;;;;;;5056462;28;20799;-45
2023/09/02 09:47:57;;;;;;;8.07;4.23;;;21.00;96.20;;;;;;5056094;28;20528;-45
2023/09/02 09:50:23;;;;;;;3.40;2.80;;;21.00;96.10;;;;;;5056062;28;20484;-44
2023/09/02 09:53:01;;;;;;;6.33;3.87;;;20.90;96.00;;;;;;5056876;28;20429;-45
2023/09/02 09:55:29;;;;;;;3.70;3.40;;;21.00;96.20;;;;;;5054796;28;21028;-45
2023/09/02 09:57:57;;;;;;;5.43;3.60;;;21.00;96.50;;;;;;5056574;28;20992;-44
2023/09/02 10:00:24;;;;;;;4.90;3.93;;;21.00;96.40;;;;;;5056989;28;20504;-46
2023/09/02 10:02:52;;;;;;;5.80;4.00;;;21.00;96.40;;;;;;5056482;28;20492;-46
2023/09/02 10:05:25;;;;;;;7.40;4.40;;;21.00;96.50;;;;;;5055336;28;20496;-45
2023/09/02 10:08:00;;;;;;;5.93;3.70;;;21.10;96.40;;;;;;5055006;28;20447;-44
2023/09/02 10:10:29;;;;;;;6.03;4.10;;;21.10;96.30;;;;;;5054925;28;20443;-45
2023/09/02 10:12:56;;;;;;;7.93;4.10;;;21.10;96.30;;;;;;5054437;28;20430;-44
2023/09/02 10:15:26;;;;;;;6.33;3.60;;;21.20;96.50;;;;;;5054785;28;20458;-45
2023/09/02 10:17:54;;;;;;;5.50;3.80;;;21.20;96.30;;;;;;5055069;28;20432;-44
2023/09/02 10:20:26;;;;;;;5.67;3.57;;;21.20;96.20;;;;;;5055547;28;20471;-44
2023/09/02 10:22:53;;;;;;;7.00;3.20;;;21.20;96.20;;;;;;5056600;28;20482;-46
2023/09/02 10:25:24;;;;;;;5.87;3.00;;;21.20;96.30;;;;;;5055073;28;20519;-45
2023/09/02 10:28:03;;;;;;;4.07;2.90;;;21.30;96.50;;;;;;5054876;28;20437;-44
2023/09/02 10:30:35;;;;;;;4.90;3.20;;;21.30;96.00;;;;;;5055272;28;20453;-44
2023/09/02 10:33:11;;;;;;;7.33;3.13;;;21.20;96.00;;;;;;5054830;28;20927;-43
2023/09/02 10:35:43;;;;;;;4.00;2.60;;;21.20;96.00;;;;;;5053588;28;20477;-44
2023/09/02 10:38:16;;;;;;;7.90;3.80;;;21.20;96.20;;;;;;5054019;28;20429;-45
2023/09/02 10:40:49;;;;;;;6.40;3.37;;;21.20;96.30;;;;;;5054698;28;20434;-45
2023/09/02 10:43:17;;;;;;;3.70;2.70;;;21.30;96.30;;;;;;5054479;28;20492;-46
2023/09/02 10:45:45;;;;;;;5.00;2.70;;;21.30;96.30;;;;;;5054049;28;20434;-44
2023/09/02 10:48:11;;;;;;;5.63;3.20;;;21.40;96.20;;;;;;5054720;28;20500;-44
2023/09/02 10:50:40;;;;;;;3.37;2.87;;;21.30;96.10;;;;;;5054259;28;20975;-45
2023/09/02 10:53:07;;;;;;;4.47;2.33;;;21.40;96.20;;;;;;5054333;28;20952;-44
2023/09/02 10:55:54;;;;;;;5.03;2.80;;;21.50;96.10;;;;;;5054054;28;20797;-43
2023/09/02 10:58:20;;;;;;;4.00;2.50;;;21.60;95.80;;;;;;5053932;28;20486;-44
2023/09/02 11:00:47;;;;;;;4.93;3.37;;;21.70;96.00;;;;;;5054801;28;20507;-45
2023/09/02 11:03:45;;;;;;;3.67;3.13;;;22.00;95.90;;;;;;5054760;28;20899;-44
2023/09/02 11:06:15;;;;;;;4.87;3.10;;;21.80;95.30;;;;;;5054049;28;20449;-45
2023/09/02 11:08:44;;;;;;;8.10;3.77;;;21.80;95.50;;;;;;5054351;28;20749;-45
2023/09/02 11:11:11;;;;;;;3.50;2.50;;;21.80;95.70;;;;;;5056195;28;20427;-44
2023/09/02 11:14:11;;;;;;;7.03;3.27;;;21.90;95.90;;;;;;5054681;28;20508;-45
2023/09/02 11:16:40;;;;;;;4.97;3.70;;;21.90;95.50;;;;;;5057238;28;20442;-44
2023/09/02 11:19:09;;;;;;;6.07;3.50;;;21.90;95.70;;;;;;5055787;28;20527;-45
2023/09/02 11:21:40;;;;;;;3.17;2.63;;;21.70;95.60;;;;;;5056791;28;20814;-45
2023/09/02 11:24:17;;;;;;;6.50;3.57;;;21.70;95.70;;;;;;5055364;28;21064;-43
2023/09/02 11:26:53;;;;;;;4.60;3.00;;;21.70;95.70;;;;;;5056542;28;20468;-45
2023/09/02 11:29:24;;;;;;;5.90;3.50;;;21.70;95.70;;;;;;5056794;28;20427;-44
2023/09/02 11:31:57;;;;;;;4.70;2.73;;;21.60;95.60;;;;;;5056398;28;20440;-45
2023/09/02 11:34:26;;;;;;;5.37;3.60;;;21.70;95.50;;;;;;5058785;28;20464;-43
2023/09/02 11:36:53;;;;;;;13.53;9.13;;;21.60;95.40;;;;;;5058374;28;20491;-44
2023/09/02 11:39:24;;;;;;;5.27;3.60;;;21.60;95.70;;;;;;5059569;28;20422;-43
2023/09/02 11:42:06;;;;;;;4.17;2.97;;;21.70;95.50;;;;;;5058902;28;20471;-45
2023/09/02 11:44:32;;;;;;;4.30;2.60;;;21.70;95.10;;;;;;5052298;28;20537;-45
2023/09/02 11:46:59;;;;;;;7.83;3.63;;;21.80;95.00;;;;;;5052364;28;20450;-45
2023/09/02 11:49:27;;;;;;;4.13;3.50;;;21.70;94.60;;;;;;5052664;28;20439;-43
2023/09/02 11:51:54;;;;;;;6.90;2.73;;;21.80;94.50;;;;;;5053063;28;20437;-44
2023/09/02 11:54:20;;;;;;;3.87;3.10;;;21.70;94.40;;;;;;5053424;28;20451;-44
2023/09/02 11:56:55;;;;;;;4.50;3.17;;;21.90;94.30;;;;;;5051821;28;20439;-44
2023/09/02 11:59:22;;;;;;;4.60;3.13;;;22.00;94.30;;;;;;5053102;28;20440;-44
2023/09/02 12:02:06;;;;;;;5.07;3.33;;;22.00;94.40;;;;;;5052896;28;20470;-45
2023/09/02 12:04:36;;;;;;;5.70;3.20;;;22.00;93.70;;;;;;5052983;28;20800;-44
2023/09/02 12:07:03;;;;;;;4.23;2.90;;;22.00;93.40;;;;;;5052114;28;20439;-45
2023/09/02 12:09:30;;;;;;;5.60;2.90;;;21.90;92.90;;;;;;5051114;28;20451;-44
2023/09/02 12:11:57;;;;;;;6.37;3.07;;;22.00;92.90;;;;;;5053086;28;20451;-44
2023/09/02 12:14:24;;;;;;;5.70;3.00;;;22.10;92.90;;;;;;5052716;28;20793;-45
2023/09/02 12:16:51;;;;;;;5.27;3.50;;;22.00;92.80;;;;;;5052114;28;20447;-44
2023/09/02 12:19:18;;;;;;;3.30;2.60;;;22.20;92.80;;;;;;5052595;28;20439;-46
2023/09/02 12:21:46;;;;;;;4.20;3.40;;;22.30;92.80;;;;;;5052141;28;20571;-44
2023/09/02 12:24:14;;;;;;;3.20;2.60;;;22.40;92.80;;;;;;5051823;28;20451;-44
2023/09/02 12:26:45;;;;;;;6.10;3.20;;;22.60;92.90;;;;;;5052027;28;20929;-44
2023/09/02 12:29:15;;;;;;;9.07;4.43;;;22.70;92.80;;;;;;5052144;28;20527;-44
2023/09/02 12:31:43;;;;;;;4.87;3.53;;;22.70;92.80;;;;;;5052245;28;20526;-44
2023/09/02 12:34:10;;;;;;;4.40;2.77;;;22.70;92.90;;;;;;5051610;28;20877;-45
2023/09/02 12:36:37;;;;;;;3.93;3.47;;;22.80;93.00;;;;;;5051564;28;20797;-43
2023/09/02 12:39:05;;;;;;;5.23;3.10;;;22.90;93.00;;;;;;5050881;28;20452;-44
2023/09/02 12:41:38;;;;;;;4.80;2.93;;;22.90;92.80;;;;;;5052499;28;20494;-44